Time;durP1;ratioP1;P1;durP2;ratioP2;P2;SDS_P1;SDS_P2;PMS_P1;PMS_P2;Temp;Humidity;BMP_temperature;BMP_pressure;BME280_temperature;BME280_humidity;BME280_pressure;Samples;Min_cycle;Max_cycle;Signal;HPM_P1;HPM_P2
2021/04/21 00:00:20;;;;;;;34.85;19.82;;;;;;;8.87;67.26;99847.88;1733069;81;25600;-59
2021/04/21 00:02:52;;;;;;;32.75;19.05;;;;;;;8.86;67.37;99846.28;1731967;81;25950;-58
2021/04/21 00:05:22;;;;;;;28.35;19.12;;;;;;;8.84;67.54;99847.15;1757204;81;25959;-58
2021/04/21 00:07:51;;;;;;;33.78;21.07;;;;;;;8.82;67.50;99841.27;1757380;81;25616;-58
2021/04/21 00:10:22;;;;;;;29.05;19.52;;;;;;;8.80;67.63;99840.76;1733773;81;25661;-58
2021/04/21 00:12:51;;;;;;;30.97;19.42;;;;;;;8.79;67.67;99837.83;1757441;81;25887;-58
2021/04/21 00:15:24;;;;;;;28.10;19.00;;;;;;;8.79;67.62;99828.39;1757541;81;26686;-58
2021/04/21 00:17:55;;;;;;;30.05;18.07;;;;;;;8.81;67.61;99828.88;1757342;81;25538;-58
2021/04/21 00:20:24;;;;;;;25.48;18.95;;;;;;;8.81;67.78;99820.79;1757380;81;25557;-58
2021/04/21 00:22:56;;;;;;;25.25;17.77;;;;;;;8.80;67.66;99829.97;1757454;81;25636;-58
2021/04/21 00:25:23;;;;;;;28.07;18.30;;;;;;;8.79;67.77;99822.44;1757413;81;25681;-58
2021/04/21 00:27:53;;;;;;;26.95;17.48;;;;;;;8.77;67.68;99819.83;1757430;81;25777;-58
2021/04/21 00:30:25;;;;;;;25.72;17.12;;;;;;;8.73;67.79;99818.27;1736307;81;25678;-58
2021/04/21 00:32:54;;;;;;;26.15;17.82;;;;;;;8.71;67.68;99811.61;1714097;83;25640;-58
2021/04/21 00:35:25;;;;;;;29.90;18.30;;;;;;;8.68;67.72;99812.22;1720423;83;25558;-46
2021/04/21 00:38:00;;;;;;;27.58;17.80;;;;;;;8.65;67.85;99818.22;1726130;83;25596;-45
2021/04/21 00:40:55;;;;;;;28.47;18.87;;;;;;;8.62;67.90;99820.98;1725145;83;25805;-46
2021/04/21 00:43:33;;;;;;;28.77;18.30;;;;;;;8.57;68.29;99821.91;1611035;88;25739;-48
2021/04/21 00:46:12;;;;;;;26.57;17.23;;;;;;;8.52;68.22;99814.50;1609713;89;25690;-45
2021/04/21 00:49:09;;;;;;;27.27;18.80;;;;;;;8.47;68.24;99811.37;1610976;89;25640;-48
2021/04/21 00:51:56;;;;;;;29.65;18.00;;;;;;;8.43;68.33;99806.88;1610975;89;25580;-49
2021/04/21 00:54:46;;;;;;;30.80;18.62;;;;;;;8.37;68.44;99803.49;1610993;89;26742;-48
2021/04/21 00:57:47;;;;;;;30.50;18.05;;;;;;;8.34;68.50;99804.09;1610953;89;25718;-45
2021/04/21 01:00:22;;;;;;;27.00;17.55;;;;;;;8.31;68.69;99800.66;1610915;89;25683;-45
2021/04/21 01:02:56;;;;;;;30.50;17.80;;;;;;;8.28;68.64;99801.30;1610930;89;25684;-45
2021/04/21 01:05:28;;;;;;;30.80;19.37;;;;;;;8.26;68.79;99802.95;1610994;89;25655;-45
2021/04/21 01:08:00;;;;;;;27.77;19.23;;;;;;;8.21;68.93;99795.77;1611038;89;27192;-46
2021/04/21 01:10:33;;;;;;;30.25;19.30;;;;;;;8.17;69.09;99788.59;1610857;89;25647;-45
2021/04/21 01:13:01;;;;;;;31.57;19.73;;;;;;;8.14;69.11;99794.58;1610896;89;25617;-46
2021/04/21 01:15:31;;;;;;;27.37;18.90;;;;;;;8.11;69.37;99788.48;1632619;87;25720;-48
2021/04/21 01:18:00;;;;;;;27.40;18.82;;;;;;;8.10;69.34;99795.75;1611003;89;25579;-49
2021/04/21 01:20:39;;;;;;;28.23;18.40;;;;;;;8.08;69.46;99786.39;1648316;83;25851;-46
2021/04/21 01:23:17;;;;;;;30.92;20.05;;;;;;;8.06;69.72;99788.04;1724829;83;25537;-46
2021/04/21 01:26:12;;;;;;;33.08;20.00;;;;;;;8.04;69.83;99776.22;1722028;83;25634;-47
2021/04/21 01:28:43;;;;;;;26.35;18.45;;;;;;;8.04;69.83;99788.90;1725655;83;25604;-58
2021/04/21 01:31:13;;;;;;;27.52;19.45;;;;;;;8.06;69.96;99784.00;1751420;81;25577;-58
2021/04/21 01:33:44;;;;;;;29.32;18.92;;;;;;;8.07;69.96;99782.91;1731989;81;25788;-58
2021/04/21 01:36:15;;;;;;;28.20;18.60;;;;;;;8.11;70.15;99784.44;1755196;81;26150;-59
2021/04/21 01:38:44;;;;;;;27.65;19.02;;;;;;;8.11;70.08;99785.23;1754988;81;25665;-59
2021/04/21 01:41:18;;;;;;;26.33;18.57;;;;;;;8.13;70.12;99787.06;1754965;81;25636;-60
2021/04/21 01:43:58;;;;;;;28.57;19.62;;;;;;;8.15;70.11;99786.20;1754940;81;25625;-60
2021/04/21 01:46:28;;;;;;;30.27;20.57;;;;;;;8.17;70.25;99785.37;1754920;81;25779;-59
2021/04/21 01:49:18;;;;;;;30.75;20.55;;;;;;;8.19;70.11;99786.41;1754799;81;25607;-58
2021/04/21 01:51:48;;;;;;;26.52;17.98;;;;;;;8.22;70.22;99789.82;1668989;85;25637;-58
2021/04/21 01:54:16;;;;;;;25.75;18.42;;;;;;;8.22;70.25;99777.17;1669206;85;25911;-58
2021/04/21 01:57:00;;;;;;;31.90;20.03;;;;;;;8.30;70.09;99785.61;1669294;85;25733;-44
2021/04/21 01:59:37;;;;;;;26.07;18.57;;;;;;;8.34;70.26;99790.09;1669162;85;25928;-45
2021/04/21 02:02:24;;;;;;;28.80;18.90;;;;;;;8.37;70.05;99782.72;1668968;85;25664;-44
2021/04/21 02:05:18;;;;;;;25.75;19.25;;;;;;;8.41;70.08;99790.98;1669120;85;26045;-44
2021/04/21 02:08:05;;;;;;;29.77;18.27;;;;;;;8.44;70.05;99790.41;1668924;85;25664;-45
2021/04/21 02:11:05;;;;;;;25.48;17.37;;;;;;;8.47;69.87;99794.41;1669058;85;25611;-45
2021/04/21 02:13:43;;;;;;;25.88;18.07;;;;;;;8.48;69.98;99794.10;1669149;85;25935;-46
2021/04/21 02:16:40;;;;;;;28.12;18.55;;;;;;;8.49;69.85;99788.16;1668871;85;26348;-45
2021/04/21 02:19:21;;;;;;;31.07;19.65;;;;;;;8.49;69.66;99791.63;1668836;85;25676;-45
2021/04/21 02:22:17;;;;;;;27.15;17.25;;;;;;;8.50;69.73;99781.67;1668917;85;25689;-45
2021/04/21 02:24:55;;;;;;;26.80;18.40;;;;;;;8.46;69.51;99782.02;1668972;85;25573;-45
2021/04/21 02:28:16;;;;;;;25.50;17.98;;;;;;;8.46;69.73;99784.72;1675790;81;26237;-45
2021/04/21 02:31:27;;;;;;;25.90;17.67;;;;;;;8.45;69.73;99775.84;1736142;81;25621;-45
2021/04/21 02:34:31;;;;;;;26.57;17.70;;;;;;;8.42;69.80;99775.08;1725992;83;25585;-47
2021/04/21 02:37:11;;;;;;;32.20;18.87;;;;;;;8.41;69.84;99777.52;1725853;83;25618;-45
2021/04/21 02:40:04;;;;;;;27.07;17.90;;;;;;;8.41;70.08;99774.81;1726126;83;25691;-46
2021/04/21 02:42:48;;;;;;;24.67;17.67;;;;;;;8.40;70.05;99778.63;1726199;83;25728;-45
2021/04/21 02:45:42;;;;;;;28.92;18.98;;;;;;;8.41;70.03;99777.52;1725821;83;25800;-46
2021/04/21 02:48:17;;;;;;;26.93;18.62;;;;;;;8.42;70.33;99783.16;1727064;82;25559;-45
2021/04/21 02:50:52;;;;;;;29.85;19.80;;;;;;;8.42;70.42;99779.12;1681949;84;25770;-48
2021/04/21 02:53:39;;;;;;;27.13;18.42;;;;;;;8.41;70.64;99774.81;1713372;83;25717;-46
2021/04/21 02:56:32;;;;;;;26.33;18.07;;;;;;;8.38;70.51;99760.08;1713239;83;25911;-47
2021/04/21 02:59:20;;;;;;;31.37;19.90;;;;;;;8.35;70.86;99757.98;1713126;83;25557;-46
2021/04/21 03:02:12;;;;;;;29.55;19.23;;;;;;;8.34;71.26;99767.72;1713319;83;25581;-45
2021/04/21 03:05:00;;;;;;;27.55;19.10;;;;;;;8.33;71.23;99765.59;1713239;83;25621;-47
2021/04/21 03:07:59;;;;;;;34.48;20.48;;;;;;;8.32;71.57;99768.02;1713471;83;25629;-45
2021/04/21 03:10:43;;;;;;;31.02;20.88;;;;;;;8.27;71.76;99766.80;1713523;83;28080;-45
2021/04/21 03:13:21;;;;;;;32.53;19.50;;;;;;;8.23;72.14;99765.27;1713273;83;25696;-45
2021/04/21 03:15:55;;;;;;;25.75;19.25;;;;;;;8.22;72.18;99760.19;1713414;83;25657;-46
2021/04/21 03:18:26;;;;;;;28.40;20.57;;;;;;;8.22;72.43;99757.48;1688705;83;25666;-47
2021/04/21 03:21:27;;;;;;;28.90;19.98;;;;;;;8.19;72.34;99761.61;1713529;83;25688;-44
2021/04/21 03:24:08;;;;;;;28.85;20.17;;;;;;;8.16;72.36;99760.86;1654389;86;26722;-45
2021/04/21 03:26:37;;;;;;;28.40;19.87;;;;;;;8.12;72.47;99752.34;1654318;86;25644;-45
2021/04/21 03:29:07;;;;;;;;;;;;;;;8.05;72.49;99756.80;1656942;86;25683;-46
2021/04/21 03:31:36;;;;;;;32.30;21.85;;;;;;;8.01;72.90;99759.31;1675274;85;35172;-48
2021/04/21 03:34:11;;;;;;;28.00;20.52;;;;;;;7.98;72.97;99765.86;1698035;84;25693;-46
2021/04/21 03:36:38;;;;;;;27.17;19.87;;;;;;;7.96;73.10;99764.03;1647981;85;26548;-46
2021/04/21 03:39:06;;;;;;;28.15;20.88;;;;;;;7.94;73.29;99771.06;1638043;87;25695;-47
2021/04/21 03:41:32;;;;;;;36.83;24.75;;;;;;;7.93;73.61;99776.19;1638151;87;25703;-47
2021/04/21 03:44:00;;;;;;;29.45;21.20;;;;;;;7.91;73.63;99770.88;1637991;87;25675;-48
2021/04/21 03:46:28;;;;;;;33.38;22.02;;;;;;;7.90;73.69;99767.92;1638160;87;25624;-47
2021/04/21 03:48:57;;;;;;;34.88;25.40;;;;;;;7.91;73.77;99768.97;1638028;87;25833;-49
2021/04/21 03:51:24;;;;;;;34.35;23.55;;;;;;;7.92;74.06;99767.89;1637934;87;25653;-48
2021/04/21 03:53:52;;;;;;;31.68;21.40;;;;;;;7.92;74.17;99767.89;1640210;86;25652;-47
2021/04/21 03:56:24;;;;;;;32.23;22.70;;;;;;;7.94;74.28;99768.38;1660146;85;25633;-45
2021/04/21 03:58:54;;;;;;;31.25;21.85;;;;;;;7.96;74.50;99769.42;1660186;85;25568;-45
2021/04/21 04:01:25;;;;;;;27.02;20.27;;;;;;;7.98;74.25;99777.98;1660107;85;25716;-45
2021/04/21 04:03:55;;;;;;;30.05;22.32;;;;;;;8.01;73.89;99774.69;1660143;85;25611;-45
2021/04/21 04:06:30;;;;;;;28.05;21.02;;;;;;;8.03;74.19;99773.83;1660120;86;25565;-45
2021/04/21 04:09:04;;;;;;;35.35;23.57;;;;;;;8.04;74.21;99793.73;1658852;86;25607;-46
2021/04/21 04:11:52;;;;;;;34.55;24.40;;;;;;;8.04;74.54;99811.80;1638408;86;25674;-45
2021/04/21 04:14:34;;;;;;;37.42;26.17;;;;;;;8.04;74.81;99808.54;1660205;86;25791;-45
2021/04/21 04:17:04;;;;;;;33.33;23.87;;;;;;;8.08;74.97;99804.69;1660001;85;25547;-46
2021/04/21 04:19:35;;;;;;;23.75;18.05;;;;;;;8.10;76.04;99778.80;1639061;86;25598;-44
2021/04/21 04:22:06;;;;;;;18.10;13.48;;;;;;;8.19;75.91;99791.80;1660210;86;25591;-46
2021/04/21 04:24:43;;;;;;;17.32;13.10;;;;;;;8.23;76.19;99751.80;1660220;85;25607;-45
2021/04/21 04:27:24;;;;;;;16.87;11.85;;;;;;;8.26;76.31;99723.99;1660255;86;25721;-48
2021/04/21 04:29:53;;;;;;;13.40;9.80;;;;;;;8.30;75.54;99719.03;1674469;83;25583;-46
2021/04/21 04:32:22;;;;;;;14.38;11.30;;;;;;;8.37;75.46;99730.73;1717417;83;25700;-48
2021/04/21 04:34:55;;;;;;;14.38;11.20;;;;;;;8.40;75.43;99728.22;1717378;83;25586;-46
2021/04/21 04:37:25;;;;;;;14.73;11.45;;;;;;;8.43;75.44;99735.47;1720693;82;25695;-48
2021/04/21 04:39:53;;;;;;;15.23;11.70;;;;;;;8.48;75.81;99736.69;1720216;83;26275;-47
2021/04/21 04:42:21;;;;;;;18.82;13.13;;;;;;;8.48;75.42;99738.03;1720152;83;25579;-49
2021/04/21 04:44:51;;;;;;;20.50;13.83;;;;;;;8.50;75.75;99742.02;1720174;83;25562;-47
2021/04/21 04:47:46;;;;;;;16.90;13.05;;;;;;;8.53;76.08;99745.98;1720109;83;25618;-46
2021/04/21 04:50:22;;;;;;;17.48;13.45;;;;;;;8.56;76.36;99758.33;1720287;83;25632;-48
2021/04/21 04:52:53;;;;;;;15.72;12.23;;;;;;;8.59;76.63;99773.07;1699029;83;26774;-45
2021/04/21 04:55:22;;;;;;;17.32;13.25;;;;;;;8.60;76.67;99776.03;1720019;83;25623;-46
2021/04/21 04:57:51;;;;;;;;;;;;;;;8.64;76.87;99791.03;1722556;83;26247;-48
2021/04/21 05:00:27;;;;;;;23.42;15.98;;;;;;;8.65;77.05;99789.91;1720124;83;25531;-47
2021/04/21 05:03:21;;;;;;;27.20;20.27;;;;;;;8.64;77.31;99799.12;1720255;83;25179;-48
2021/04/21 05:05:58;;;;;;;28.25;22.32;;;;;;;8.61;77.41;99797.81;1720167;83;25720;-48
2021/04/21 05:08:47;;;;;;;35.98;23.57;;;;;;;8.57;77.93;99794.94;1720120;83;25706;-47
2021/04/21 05:11:17;;;;;;;40.25;29.20;;;;;;;8.55;77.94;99795.81;1720381;83;25692;-45
2021/04/21 05:14:06;;;;;;;43.20;31.15;;;;;;;8.52;78.17;99800.46;1704767;82;25728;-50
2021/04/21 05:17:28;;;;;;;50.60;31.85;;;;;;;8.52;78.28;99791.03;1700108;84;25605;-49
2021/04/21 05:20:21;;;;;;;46.02;34.00;;;;;;;8.54;78.54;99795.55;1703711;83;26802;-46
2021/04/21 05:23:38;;;;;;;49.27;35.98;;;;;;;8.57;78.91;99791.46;1616331;88;25628;-46
2021/04/21 05:26:34;;;;;;;50.78;36.03;;;;;;;8.57;78.97;99787.42;1628810;87;25714;-47
2021/04/21 05:29:56;;;;;;;49.08;37.55;;;;;;;8.69;78.96;99780.12;1842339;76;34570;-48
2021/04/21 05:32:34;;;;;;;51.28;39.20;;;;;;;8.67;79.20;99785.81;1701968;76;25651;-56
2021/04/21 05:35:58;;;;;;;56.92;38.25;;;;;;;8.76;79.42;99783.16;1685689;83;25743;-56
2021/04/21 05:39:07;;;;;;;60.48;40.73;;;;;;;8.79;79.49;99784.69;1669913;85;25553;-57
2021/04/21 05:42:05;;;;;;;53.23;38.42;;;;;;;8.85;79.52;99781.86;1674084;85;25651;-56
2021/04/21 05:45:13;;;;;;;56.48;40.78;;;;;;;8.83;79.48;99775.42;1616103;88;25634;-56
2021/04/21 05:48:19;;;;;;;53.68;40.43;;;;;;;8.82;79.71;99779.77;1620862;88;25606;-57
2021/04/21 05:51:11;;;;;;;54.05;40.40;;;;;;;8.85;79.80;99779.16;1618055;88;25842;-57
2021/04/21 05:54:08;;;;;;;56.68;42.65;;;;;;;8.88;79.65;99781.24;1640013;87;25697;-56
2021/04/21 05:57:21;;;;;;;66.70;54.08;;;;;;;8.97;79.70;99777.48;1832741;76;38581;-56
2021/04/21 06:00:27;;;;;;;55.17;43.28;;;;;;;9.00;79.70;99778.75;1818538;78;25568;-56
2021/04/21 06:02:56;;;;;;;66.42;45.35;;;;;;;9.08;79.69;99777.22;1818588;78;28739;-55
2021/04/21 06:05:23;;;;;;;62.75;45.92;;;;;;;9.19;79.95;99777.73;1818610;78;25598;-57
2021/04/21 06:07:49;;;;;;;59.70;43.65;;;;;;;9.27;80.03;99783.72;1818737;78;25508;-56
2021/04/21 06:10:28;;;;;;;59.03;44.40;;;;;;;9.37;79.92;99780.73;1818619;78;25571;-57
2021/04/21 06:13:01;;;;;;;62.53;44.10;;;;;;;9.49;79.92;99788.23;1818693;78;25682;-57
2021/04/21 06:15:35;;;;;;;61.30;48.00;;;;;;;9.63;79.80;99782.13;1818565;78;25686;-57
2021/04/21 06:18:05;;;;;;;61.02;45.30;;;;;;;9.84;80.38;99782.34;1818311;78;25288;-57
2021/04/21 06:20:42;;;;;;;64.32;46.10;;;;;;;10.07;80.52;99777.57;1818557;78;25582;-57
2021/04/21 06:23:24;;;;;;;66.25;45.92;;;;;;;10.27;80.23;99781.55;1818596;78;25618;-57
2021/04/21 06:26:03;;;;;;;65.08;46.85;;;;;;;10.53;80.44;99781.32;1818565;78;25639;-57
2021/04/21 06:28:31;;;;;;;59.43;42.80;;;;;;;10.80;80.21;99780.14;1818852;78;25884;-57
2021/04/21 06:31:12;;;;;;;52.25;40.92;;;;;;;11.06;79.90;99774.64;1818445;78;26315;-57
2021/04/21 06:33:43;;;;;;;55.83;39.27;;;;;;;11.27;79.05;99773.37;1818558;78;25575;-57
2021/04/21 06:36:13;;;;;;;52.88;37.93;;;;;;;11.48;78.37;99774.77;1802393;77;25624;-57
2021/04/21 06:38:41;;;;;;;59.18;40.10;;;;;;;11.71;77.52;99767.14;1786382;80;25608;-56
2021/04/21 06:41:08;;;;;;;51.02;39.50;;;;;;;11.95;78.07;99774.65;1786291;80;25710;-59
2021/04/21 06:43:37;;;;;;;48.15;36.90;;;;;;;12.29;78.05;99770.06;1786281;80;25650;-58
2021/04/21 06:46:10;;;;;;;47.58;34.50;;;;;;;12.62;77.19;99775.27;1786865;77;25640;-58
2021/04/21 06:48:37;;;;;;;42.48;32.83;;;;;;;12.87;75.73;99776.90;1786035;80;25522;-57
2021/04/21 06:51:15;;;;;;;36.77;29.27;;;;;;;13.13;75.08;99765.48;1786579;80;25590;-57
2021/04/21 06:53:46;;;;;;;40.10;28.77;;;;;;;13.37;73.85;99763.38;1786530;80;25750;-57
2021/04/21 06:56:14;;;;;;;40.23;28.45;;;;;;;13.57;73.47;99765.17;1791636;78;25770;-57
2021/04/21 06:58:42;;;;;;;39.45;29.00;;;;;;;13.66;71.96;99759.61;1795434;79;25515;-58
2021/04/21 07:01:12;;;;;;;33.88;27.42;;;;;;;13.86;72.45;99763.86;1795180;79;25568;-58
2021/04/21 07:03:41;;;;;;;36.60;26.60;;;;;;;14.18;71.84;99764.23;1809831;77;25559;-57
2021/04/21 07:06:09;;;;;;;32.00;24.70;;;;;;;14.48;70.85;99759.78;1845609;77;25686;-57
2021/04/21 07:08:38;;;;;;;28.90;21.87;;;;;;;14.86;71.09;99762.53;1813863;77;25584;-57
2021/04/21 07:11:09;;;;;;;27.98;21.02;;;;;;;15.23;69.29;99754.67;1759706;80;25547;-58
2021/04/21 07:13:44;;;;;;;30.43;20.37;;;;;;;15.49;67.50;99760.36;1748576;81;25644;-59
2021/04/21 07:16:19;;;;;;;25.08;20.17;;;;;;;15.81;67.37;99760.86;1759615;81;25568;-58
2021/04/21 07:19:00;;;;;;;28.60;19.20;;;;;;;16.11;65.84;99763.83;1760610;78;26053;-58
2021/04/21 07:21:31;;;;;;;28.00;19.27;;;;;;;16.20;63.28;99764.39;1795410;78;25622;-58
2021/04/21 07:24:02;;;;;;;24.82;18.07;;;;;;;16.23;61.00;99763.67;1822756;78;25457;-59
2021/04/21 07:26:35;;;;;;;22.73;17.73;;;;;;;16.37;59.77;99765.89;1823635;78;25643;-61
2021/04/21 07:29:03;;;;;;;21.77;17.02;;;;;;;16.44;60.84;99761.14;1823459;78;25667;-59
2021/04/21 07:31:39;;;;;;;25.48;16.37;;;;;;;16.62;60.89;99760.12;1793600;78;25918;-61
2021/04/21 07:34:14;;;;;;;23.87;16.87;;;;;;;16.64;58.79;99759.17;1791073;79;25619;-60
2021/04/21 07:36:47;;;;;;;24.65;17.10;;;;;;;16.47;57.65;99765.88;1791115;80;25544;-61
2021/04/21 07:39:15;;;;;;;24.23;16.90;;;;;;;16.37;57.90;99766.47;1764212;80;25604;-62
2021/04/21 07:41:45;;;;;;;23.12;15.68;;;;;;;16.39;56.43;99769.04;1791354;79;25606;-61
2021/04/21 07:44:51;;;;;;;24.37;16.55;;;;;;;16.42;57.70;99769.69;1788941;80;25700;-61
2021/04/21 07:47:22;;;;;;;18.98;15.20;;;;;;;16.41;57.19;99765.40;1767093;80;25660;-61
2021/04/21 07:50:01;;;;;;;21.50;16.20;;;;;;;16.52;57.66;99762.86;1791244;79;25501;-62
2021/04/21 07:52:36;;;;;;;20.15;16.00;;;;;;;16.75;57.61;99763.45;1790857;79;25536;-62
2021/04/21 07:55:20;;;;;;;17.60;15.18;;;;;;;16.81;55.40;99759.27;1790050;80;25655;-61
2021/04/21 07:58:04;;;;;;;21.15;14.50;;;;;;;16.88;55.57;99760.78;1763390;81;25747;-63
2021/04/21 08:00:33;;;;;;;18.92;14.13;;;;;;;17.08;56.08;99767.56;1763196;81;25542;-62
2021/04/21 08:03:00;;;;;;;22.52;14.80;;;;;;;17.24;54.00;99763.31;1763576;81;25576;-63
2021/04/21 08:05:28;;;;;;;19.02;13.55;;;;;;;17.34;54.56;99765.42;1763364;81;25565;-63
2021/04/21 08:07:59;;;;;;;18.52;15.25;;;;;;;17.47;54.20;99760.52;1763095;81;25577;-63
2021/04/21 08:10:29;;;;;;;21.50;14.20;;;;;;;17.62;52.80;99756.86;1763347;81;25754;-62
2021/04/21 08:12:59;;;;;;;19.62;14.18;;;;;;;17.61;52.37;99753.12;1763419;81;26346;-63
2021/04/21 08:15:31;;;;;;;;;;;;;;;17.61;50.88;99764.84;1765622;81;25552;-62
2021/04/21 08:18:04;;;;;;;18.48;14.00;;;;;;;17.62;51.58;99753.31;1763342;81;25580;-63
2021/04/21 08:20:36;;;;;;;21.00;14.15;;;;;;;17.81;52.70;99760.59;1763415;81;25817;-61
2021/04/21 08:23:06;;;;;;;21.30;14.80;;;;;;;18.01;51.48;99764.80;1762193;81;25981;-63
2021/04/21 08:25:33;;;;;;;23.32;15.20;;;;;;;18.04;50.77;99761.32;1763400;81;25653;-63
2021/04/21 08:28:00;;;;;;;20.20;14.10;;;;;;;18.07;50.39;99754.33;1767512;79;25619;-63
2021/04/21 08:30:30;;;;;;;19.48;13.30;;;;;;;18.15;50.10;99761.47;1779183;78;25605;-62
2021/04/21 08:32:57;;;;;;;18.70;14.50;;;;;;;18.39;50.69;99754.70;1763526;81;25655;-62
2021/04/21 08:35:25;;;;;;;18.45;12.78;;;;;;;18.73;51.44;99758.75;1763238;81;25771;-64
2021/04/21 08:37:51;;;;;;;20.97;12.88;;;;;;;18.99;50.24;99756.45;1763131;81;25585;-63
2021/04/21 08:40:23;;;;;;;18.75;12.60;;;;;;;19.08;49.45;99749.87;1763264;81;25533;-62
2021/04/21 08:42:59;;;;;;;19.17;13.32;;;;;;;19.27;49.53;99755.69;1763351;81;25628;-62
2021/04/21 08:45:26;;;;;;;19.60;12.93;;;;;;;19.21;46.11;99758.00;1763033;81;25506;-63
2021/04/21 08:47:56;;;;;;;16.35;12.78;;;;;;;19.03;47.63;99750.44;1763348;81;25772;-64
2021/04/21 08:50:24;;;;;;;21.33;14.05;;;;;;;19.18;46.63;99764.23;1763498;81;25624;-64
2021/04/21 08:52:56;;;;;;;24.27;15.28;;;;;;;19.06;47.21;99752.98;1763180;81;29805;-65
2021/04/21 08:55:27;;;;;;;18.32;15.18;;;;;;;18.98;46.13;99750.76;1762981;80;25656;-63
2021/04/21 08:57:54;;;;;;;17.55;14.05;;;;;;;19.02;47.92;99750.22;1757703;81;25578;-64
2021/04/21 09:00:22;;;;;;;23.12;15.90;;;;;;;19.36;48.80;99756.94;1757391;81;25770;-66
2021/04/21 09:02:49;;;;;;;22.22;15.43;;;;;;;19.54;46.72;99763.89;1757516;81;25731;-63
2021/04/21 09:05:19;;;;;;;22.50;16.00;;;;;;;19.35;46.18;99751.83;1757595;81;25615;-65
2021/04/21 09:07:47;;;;;;;21.33;16.48;;;;;;;19.44;46.98;99755.60;1757490;81;25714;-65
2021/04/21 09:10:18;;;;;;;21.12;17.07;;;;;;;19.57;46.62;99753.53;1757710;81;25583;-65
2021/04/21 09:12:45;;;;;;;21.70;16.85;;;;;;;19.53;45.27;99760.96;1757477;81;26528;-64
2021/04/21 09:15:16;;;;;;;22.90;16.07;;;;;;;19.29;45.74;99757.45;1755947;81;26164;-64
2021/04/21 09:17:56;;;;;;;24.45;17.25;;;;;;;19.11;45.83;99766.34;1757723;81;25532;-64
2021/04/21 09:20:26;;;;;;;26.25;18.48;;;;;;;18.71;45.58;99753.43;1757694;81;26219;-63
2021/04/21 09:23:12;;;;;;;23.42;17.52;;;;;;;18.32;46.07;99755.99;1757581;81;25668;-64
2021/04/21 09:25:49;;;;;;;25.25;18.50;;;;;;;18.00;46.74;99761.09;1757721;81;26016;-64
2021/04/21 09:28:20;;;;;;;27.00;20.70;;;;;;;17.78;47.12;99764.09;1757359;81;25763;-63
2021/04/21 09:30:59;;;;;;;26.02;20.40;;;;;;;17.71;48.34;99757.95;1757641;81;25542;-63
2021/04/21 09:33:29;;;;;;;27.52;21.00;;;;;;;17.70;48.23;99759.88;1756552;80;25594;-63
2021/04/21 09:35:57;;;;;;;30.95;19.80;;;;;;;17.90;49.07;99750.98;1739834;82;25601;-61
2021/04/21 09:38:43;;;;;;;30.02;21.35;;;;;;;18.12;48.92;99754.00;1740349;82;25696;-65
2021/04/21 09:41:18;;;;;;;26.80;21.55;;;;;;;17.98;48.86;99756.55;1770921;80;25750;-67
2021/04/21 09:43:45;;;;;;;29.70;22.95;;;;;;;17.83;49.73;99748.73;1721979;81;25316;-68
2021/04/21 09:46:18;;;;;;;27.42;21.02;;;;;;;17.65;49.96;99757.46;1742259;82;25615;-68
2021/04/21 09:48:46;;;;;;;33.63;22.82;;;;;;;17.63;51.15;99748.06;1772631;80;25607;-66
2021/04/21 09:51:17;;;;;;;33.17;22.80;;;;;;;17.85;51.57;99734.87;1790315;80;26764;-65
2021/04/21 09:53:51;;;;;;;23.80;20.92;;;;;;;18.16;51.25;99743.87;1790300;80;25612;-66
2021/04/21 09:56:23;;;;;;;26.48;21.23;;;;;;;18.12;49.75;99734.84;1787696;79;25642;-71
2021/04/21 09:58:56;;;;;;;27.00;20.10;;;;;;;18.06;50.79;99733.59;1793091;79;25595;-72
2021/04/21 10:01:33;;;;;;;23.75;17.77;;;;;;;18.05;49.64;99729.30;1741697;82;25539;-71
2021/04/21 10:04:27;;;;;;;25.60;18.83;;;;;;;18.08;49.34;99729.89;1769328;79;25725;-73
2021/04/21 10:07:02;;;;;;;24.32;19.00;;;;;;;18.05;49.36;99728.70;1800162;79;25556;-66
2021/04/21 10:09:38;;;;;;;25.50;19.90;;;;;;;18.25;49.84;99732.63;1800463;79;25574;-65
2021/04/21 10:12:26;;;;;;;26.00;19.12;;;;;;;18.39;50.50;99710.08;1784534;79;25540;-65
2021/04/21 10:15:13;;;;;;;26.25;19.20;;;;;;;18.74;50.64;99719.22;1770741;81;25622;-65
2021/04/21 10:17:44;;;;;;;22.13;16.73;;;;;;;18.82;48.70;99720.08;1740189;82;25700;-65
2021/04/21 10:20:15;;;;;;;27.75;16.75;;;;;;;18.86;49.54;99712.70;1708922;83;26222;-64
2021/04/21 10:22:45;;;;;;;26.62;18.85;;;;;;;19.12;48.50;99711.73;1737932;82;25611;-65
2021/04/21 10:25:15;;;;;;;23.12;16.97;;;;;;;19.23;47.83;99707.69;1709040;83;25574;-65
2021/04/21 10:27:42;;;;;;;19.12;15.25;;;;;;;19.07;47.39;99697.02;1738011;82;25694;-64
2021/04/21 10:30:11;;;;;;;18.77;15.90;;;;;;;19.03;47.50;99704.41;1709078;83;25704;-64
2021/04/21 10:32:39;;;;;;;17.42;11.30;;;;;;;18.96;46.69;99701.03;1737855;82;25656;-64
2021/04/21 10:35:08;;;;;;;17.80;10.75;;;;;;;19.15;44.54;99703.31;1708735;83;25624;-64
2021/04/21 10:37:40;;;;;;;12.80;9.33;;;;;;;19.13;43.11;99691.95;1761267;80;25619;-63
2021/04/21 10:40:11;;;;;;;13.68;8.95;;;;;;;19.19;43.27;99695.92;1780505;80;25611;-63
2021/04/21 10:43:04;;;;;;;16.20;9.60;;;;;;;19.53;44.87;99700.62;1773453;80;25902;-63
2021/04/21 10:45:33;;;;;;;10.30;6.83;;;;;;;19.76;43.39;99697.61;1710155;83;25769;-63
2021/04/21 10:48:00;;;;;;;9.88;6.40;;;;;;;19.91;40.70;99697.67;1686533;83;25722;-63
2021/04/21 10:50:45;;;;;;;10.98;4.97;;;;;;;19.88;38.06;99688.84;1709975;83;25286;-64
2021/04/21 10:53:33;;;;;;;9.35;6.22;;;;;;;19.80;36.67;99694.88;1710342;83;25670;-64
2021/04/21 10:56:24;;;;;;;15.68;6.83;;;;;;;19.85;39.44;99703.33;1709009;83;25922;-64
2021/04/21 10:58:56;;;;;;;15.85;7.17;;;;;;;20.00;39.50;99682.98;1735282;82;25650;-63
2021/04/21 11:01:37;;;;;;;15.18;6.85;;;;;;;20.21;38.97;99695.20;1688071;84;25751;-63
2021/04/21 11:04:07;;;;;;;11.03;6.40;;;;;;;20.45;38.22;99699.16;1680192;85;25693;-67
2021/04/21 11:06:44;;;;;;;12.88;6.40;;;;;;;20.58;36.54;99691.34;1679511;85;25726;-66
2021/04/21 11:09:13;;;;;;;9.63;6.97;;;;;;;20.61;37.29;99696.84;1677883;84;26330;-67
2021/04/21 11:11:49;;;;;;;8.68;6.72;;;;;;;20.77;36.69;99684.12;1727984;83;28738;-66
2021/04/21 11:14:49;;;;;;;10.32;7.15;;;;;;;20.77;36.36;99676.45;1707201;83;25745;-67
2021/04/21 11:17:16;;;;;;;14.90;8.28;;;;;;;20.81;34.69;99689.63;1704209;82;25631;-63
2021/04/21 11:19:44;;;;;;;12.25;9.10;;;;;;;20.56;35.23;99676.62;1692272;84;25673;-66
2021/04/21 11:22:27;;;;;;;15.20;8.83;;;;;;;20.59;36.70;99674.47;1756381;81;25968;-65
2021/04/21 11:25:22;;;;;;;12.65;8.45;;;;;;;20.74;37.02;99668.42;1795031;79;25641;-63
2021/04/21 11:27:51;;;;;;;14.07;7.17;;;;;;;20.93;35.16;99676.07;1794722;79;25585;-65
2021/04/21 11:30:39;;;;;;;12.68;7.97;;;;;;;20.72;34.83;99662.51;1795590;79;25523;-66
2021/04/21 11:33:06;;;;;;;14.83;7.50;;;;;;;20.40;33.74;99663.84;1795057;79;25557;-46
2021/04/21 11:35:34;;;;;;;10.25;7.17;;;;;;;20.26;35.79;99659.13;1795352;79;25984;-46
2021/04/21 11:38:01;;;;;;;10.48;6.87;;;;;;;20.42;34.28;99673.87;1795363;79;25596;-46
2021/04/21 11:40:31;;;;;;;12.93;7.03;;;;;;;20.34;34.12;99664.83;1795335;79;25649;-46
2021/04/21 11:43:17;;;;;;;10.55;6.42;;;;;;;20.38;34.81;99667.58;1795329;79;25563;-47
2021/04/21 11:45:44;;;;;;;10.30;6.45;;;;;;;20.49;35.12;99654.65;1795416;79;25611;-46
2021/04/21 11:48:16;;;;;;;10.72;6.45;;;;;;;20.75;35.18;99652.11;1768309;79;25995;-50
2021/04/21 11:50:45;;;;;;;10.38;5.42;;;;;;;20.77;34.12;99658.59;1795282;79;25603;-47
2021/04/21 11:53:22;;;;;;;10.08;5.60;;;;;;;20.85;34.68;99651.31;1795298;79;25572;-48
2021/04/21 11:55:54;;;;;;;9.60;5.97;;;;;;;20.98;33.90;99653.68;1795273;79;25650;-46
2021/04/21 11:58:38;;;;;;;14.95;6.87;;;;;;;20.85;32.56;99651.91;1795387;79;25631;-47
2021/04/21 12:01:10;;;;;;;18.10;10.32;;;;;;;20.73;33.30;99663.31;1795368;79;25799;-47
2021/04/21 12:03:48;;;;;;;10.60;5.95;;;;;;;20.62;34.05;99654.48;1795445;79;25606;-61
2021/04/21 12:06:19;;;;;;;9.88;5.20;;;;;;;20.77;32.63;99648.97;1780746;79;25604;-62
2021/04/21 12:08:49;;;;;;;10.82;5.37;;;;;;;21.01;32.48;99662.48;1773482;80;25489;-61